Time;durP1;ratioP1;P1;durP2;ratioP2;P2;SDS_P1;SDS_P2;PMS_P1;PMS_P2;Temp;Humidity;BMP_temperature;BMP_pressure;BME280_temperature;BME280_humidity;BME280_pressure;Samples;Min_cycle;Max_cycle;Signal;HPM_P1;HPM_P2
2023/12/16 00:01:32;;;;;;;1.92;1.73;;;6.50;99.90;;;;;;4942054;28;20058;-75
2023/12/16 00:03:58;;;;;;;3.13;1.27;;;6.50;99.90;;;;;;4925584;28;20047;-75
2023/12/16 00:06:23;;;;;;;4.18;0.85;;;6.50;99.90;;;;;;4934652;29;20490;-75
2023/12/16 00:08:49;;;;;;;4.90;2.28;;;6.50;99.90;;;;;;4921847;29;20454;-75
2023/12/16 00:11:15;;;;;;;2.10;1.40;;;6.40;99.90;;;;;;4927970;29;20043;-75
2023/12/16 00:13:40;;;;;;;0.85;0.85;;;6.40;99.90;;;;;;4933037;29;20452;-75
2023/12/16 00:16:06;;;;;;;1.67;1.30;;;6.40;99.90;;;;;;4960103;28;20055;-75
2023/12/16 00:18:32;;;;;;;1.15;1.05;;;6.40;99.90;;;;;;4940624;28;20055;-75
2023/12/16 00:20:58;;;;;;;3.40;1.55;;;6.40;99.90;;;;;;4938113;29;20035;-75
2023/12/16 00:23:23;;;;;;;2.17;1.02;;;6.30;99.90;;;;;;4939769;28;20062;-75
2023/12/16 00:25:49;;;;;;;0.70;0.70;;;6.30;99.90;;;;;;4926328;29;20678;-75
2023/12/16 00:28:14;;;;;;;2.90;0.93;;;6.30;99.90;;;;;;4926753;29;20047;-75
2023/12/16 00:30:40;;;;;;;4.55;0.93;;;6.30;99.90;;;;;;4924864;29;20062;-75
2023/12/16 00:33:05;;;;;;;4.18;2.50;;;6.30;99.90;;;;;;4926765;29;20521;-75
2023/12/16 00:35:31;;;;;;;1.73;0.63;;;6.30;99.90;;;;;;4926581;29;20076;-75
2023/12/16 00:37:56;;;;;;;3.38;0.77;;;6.30;99.90;;;;;;4925446;29;20047;-75
2023/12/16 00:40:22;;;;;;;1.30;1.08;;;6.20;99.90;;;;;;4909686;29;20048;-75
2023/12/16 00:42:47;;;;;;;1.98;1.13;;;6.20;99.90;;;;;;4927463;29;20051;-75
2023/12/16 00:45:13;;;;;;;1.52;0.63;;;6.20;99.90;;;;;;4931038;29;20047;-75
2023/12/16 00:47:38;;;;;;;3.50;1.52;;;6.20;99.90;;;;;;4925366;29;20051;-75
2023/12/16 00:50:05;;;;;;;2.40;0.70;;;6.20;99.90;;;;;;4926562;28;20112;-75
2023/12/16 00:52:31;;;;;;;6.80;1.42;;;6.20;99.90;;;;;;4937279;29;20058;-75
2023/12/16 00:54:56;;;;;;;4.10;2.08;;;6.10;99.90;;;;;;4944463;29;20438;-75
2023/12/16 00:57:22;;;;;;;2.40;2.20;;;6.10;99.90;;;;;;4943791;28;20406;-75
2023/12/16 00:59:47;;;;;;;6.22;1.00;;;6.10;99.90;;;;;;4946089;28;20050;-75
2023/12/16 01:02:13;;;;;;;0.95;0.80;;;6.10;99.90;;;;;;4927875;29;20146;-75
2023/12/16 01:04:38;;;;;;;0.82;0.70;;;6.10;99.90;;;;;;4926572;29;20479;-75
2023/12/16 01:07:04;;;;;;;1.48;0.90;;;6.00;99.90;;;;;;4940141;29;20573;-74
2023/12/16 01:09:29;;;;;;;2.05;0.70;;;6.10;99.90;;;;;;4932186;28;20054;-75
2023/12/16 01:11:55;;;;;;;2.00;0.85;;;6.10;99.90;;;;;;4951715;28;20052;-75
2023/12/16 01:14:21;;;;;;;3.63;1.38;;;6.00;99.90;;;;;;4931822;29;20090;-75
2023/12/16 01:16:47;;;;;;;2.78;1.50;;;6.10;99.90;;;;;;4945059;28;20740;-74
2023/12/16 01:19:12;;;;;;;3.55;1.13;;;6.00;99.90;;;;;;4919216;29;20071;-74
2023/12/16 01:21:42;;;;;;;5.03;0.80;;;6.00;99.90;;;;;;4926027;29;20046;-74
2023/12/16 01:24:08;;;;;;;2.35;0.93;;;6.00;99.90;;;;;;4934476;29;20043;-75
2023/12/16 01:26:33;;;;;;;2.88;1.08;;;6.00;99.90;;;;;;4926243;29;20418;-74
2023/12/16 01:28:59;;;;;;;2.55;0.40;;;6.00;99.90;;;;;;4924384;29;20427;-74
2023/12/16 01:31:25;;;;;;;2.95;0.90;;;6.00;99.90;;;;;;4925462;29;20055;-75
2023/12/16 01:33:51;;;;;;;2.97;0.50;;;6.00;99.90;;;;;;4926377;29;20040;-75
2023/12/16 01:36:19;;;;;;;3.38;1.55;;;6.00;99.90;;;;;;4926306;29;20075;-75
2023/12/16 01:38:44;;;;;;;0.88;0.75;;;6.00;99.90;;;;;;4936230;29;20063;-75
2023/12/16 01:41:10;;;;;;;2.53;0.57;;;5.90;99.90;;;;;;4958803;28;20059;-74
2023/12/16 01:43:35;;;;;;;3.28;1.60;;;6.00;99.90;;;;;;4942019;29;20066;-74
2023/12/16 01:46:04;;;;;;;2.28;1.08;;;6.00;99.90;;;;;;4942157;29;20046;-74
2023/12/16 01:48:30;;;;;;;1.02;0.70;;;5.90;99.90;;;;;;4937732;28;20036;-75
2023/12/16 01:50:56;;;;;;;2.63;1.05;;;5.90;99.90;;;;;;4923742;29;20048;-75
2023/12/16 01:53:22;;;;;;;1.30;0.73;;;5.90;99.90;;;;;;4927765;29;20031;-75
2023/12/16 01:55:48;;;;;;;0.55;0.52;;;5.90;99.90;;;;;;4943281;28;20043;-74
2023/12/16 01:58:13;;;;;;;2.05;1.27;;;5.90;99.90;;;;;;4943025;29;20566;-74
2023/12/16 02:00:41;;;;;;;2.28;0.90;;;5.90;99.90;;;;;;4942929;28;20039;-74
2023/12/16 02:03:06;;;;;;;3.20;0.80;;;5.90;99.90;;;;;;4924497;29;20047;-74
2023/12/16 02:05:32;;;;;;;1.98;0.90;;;6.00;99.90;;;;;;4925302;29;20046;-74
2023/12/16 02:07:58;;;;;;;4.93;1.00;;;6.00;99.90;;;;;;5053849;23;20058;-74
2023/12/16 02:10:24;;;;;;;2.83;1.30;;;6.00;99.90;;;;;;4997992;28;20049;-75
2023/12/16 02:12:49;;;;;;;4.47;1.17;;;6.00;99.90;;;;;;4991917;28;20441;-75
2023/12/16 02:15:15;;;;;;;2.08;0.70;;;6.00;99.90;;;;;;5000608;28;20518;-74
2023/12/16 02:17:40;;;;;;;1.70;1.00;;;6.00;99.90;;;;;;4994436;28;20429;-75
2023/12/16 02:20:07;;;;;;;0.68;0.65;;;6.00;99.90;;;;;;4980895;28;20058;-75
2023/12/16 02:22:32;;;;;;;6.65;1.80;;;6.00;99.90;;;;;;4982775;28;20062;-75
2023/12/16 02:25:00;;;;;;;0.70;0.70;;;6.00;99.90;;;;;;4997714;28;20080;-75
2023/12/16 02:27:25;;;;;;;0.98;0.82;;;6.00;99.90;;;;;;4984056;28;20877;-75
2023/12/16 02:29:51;;;;;;;3.63;1.42;;;6.00;99.90;;;;;;4982622;28;20034;-75
2023/12/16 02:32:17;;;;;;;2.65;1.20;;;6.00;99.90;;;;;;4981039;28;20050;-75
2023/12/16 02:34:42;;;;;;;1.75;1.20;;;6.00;99.90;;;;;;4985577;28;20489;-75
2023/12/16 02:37:08;;;;;;;1.33;0.32;;;6.00;99.90;;;;;;5000462;28;20074;-75
2023/12/16 02:39:34;;;;;;;4.03;1.17;;;5.90;99.90;;;;;;4987399;28;20042;-74
2023/12/16 02:42:00;;;;;;;1.80;0.88;;;6.00;99.90;;;;;;5001990;28;20443;-75
2023/12/16 02:44:25;;;;;;;3.08;1.00;;;5.90;99.90;;;;;;4999073;28;20404;-74
2023/12/16 02:46:51;;;;;;;1.77;0.85;;;5.90;99.90;;;;;;4979815;28;20053;-75
2023/12/16 02:49:16;;;;;;;3.80;1.17;;;5.90;99.90;;;;;;4993967;28;20049;-74
2023/12/16 02:51:42;;;;;;;1.55;0.60;;;5.90;99.90;;;;;;4984628;28;20042;-75
2023/12/16 02:54:07;;;;;;;3.25;0.90;;;5.90;99.90;;;;;;5000145;28;20041;-75
2023/12/16 02:56:33;;;;;;;4.25;0.82;;;5.90;99.90;;;;;;4998419;28;20042;-74
2023/12/16 02:58:59;;;;;;;2.85;0.82;;;5.90;99.90;;;;;;4990449;28;20109;-75
2023/12/16 03:01:24;;;;;;;1.65;1.33;;;5.90;99.90;;;;;;4981178;28;20413;-74
2023/12/16 03:03:50;;;;;;;1.55;1.10;;;5.90;99.90;;;;;;4983274;28;20385;-74
2023/12/16 03:06:15;;;;;;;2.13;1.38;;;5.90;99.90;;;;;;4981900;28;20146;-74
2023/12/16 03:08:41;;;;;;;7.05;1.50;;;5.90;99.90;;;;;;4977482;28;20058;-75
2023/12/16 03:11:06;;;;;;;4.38;1.30;;;5.90;99.90;;;;;;4987861;28;20054;-75
2023/12/16 03:13:32;;;;;;;3.70;0.75;;;5.90;99.90;;;;;;4993101;28;20459;-75
2023/12/16 03:15:58;;;;;;;7.05;2.50;;;5.90;99.90;;;;;;4979341;28;20141;-75
2023/12/16 03:18:23;;;;;;;0.98;0.98;;;6.00;99.90;;;;;;4987116;28;20041;-75
2023/12/16 03:20:49;;;;;;;5.97;1.17;;;5.90;99.90;;;;;;5001830;28;20050;-75
2023/12/16 03:23:15;;;;;;;3.13;1.35;;;5.90;99.90;;;;;;4985478;28;20057;-74
2023/12/16 03:25:43;;;;;;;9.82;1.80;;;5.90;99.90;;;;;;4997113;28;20037;-75
2023/12/16 03:28:09;;;;;;;9.05;2.42;;;5.90;99.90;;;;;;4998808;28;20073;-74
2023/12/16 03:30:42;;;;;;;5.10;3.08;;;6.00;99.90;;;;;;4981347;28;20068;-74
2023/12/16 03:33:08;;;;;;;2.53;1.70;;;6.00;99.90;;;;;;4980166;28;20665;-75
2023/12/16 03:35:34;;;;;;;4.13;1.38;;;6.00;99.90;;;;;;4982232;28;20034;-75
2023/12/16 03:38:00;;;;;;;4.10;1.48;;;6.00;99.90;;;;;;4981043;28;20066;-75
2023/12/16 03:40:26;;;;;;;3.30;1.83;;;5.90;99.90;;;;;;4984608;28;20397;-75
2023/12/16 03:42:52;;;;;;;2.35;1.25;;;5.90;99.90;;;;;;4980257;28;20085;-74
2023/12/16 03:45:18;;;;;;;2.63;1.73;;;5.90;99.90;;;;;;4984219;28;20073;-74
2023/12/16 03:47:43;;;;;;;2.80;1.52;;;5.90;99.90;;;;;;4969406;28;20049;-74
2023/12/16 03:50:09;;;;;;;2.17;2.00;;;5.90;99.90;;;;;;4997569;28;20045;-74
2023/12/16 03:52:34;;;;;;;7.43;2.35;;;5.90;99.90;;;;;;5003523;28;20054;-75
2023/12/16 03:55:00;;;;;;;4.40;1.67;;;5.90;99.90;;;;;;5003178;28;20053;-75
2023/12/16 03:57:26;;;;;;;5.68;1.55;;;5.80;99.90;;;;;;5002249;28;20072;-74
2023/12/16 03:59:51;;;;;;;7.28;1.58;;;5.90;99.90;;;;;;4986526;28;20034;-75
2023/12/16 04:02:17;;;;;;;2.92;1.65;;;5.80;99.90;;;;;;4985484;28;20432;-75
2023/12/16 04:04:42;;;;;;;7.03;1.55;;;5.80;99.90;;;;;;4980791;28;20117;-74
2023/12/16 04:07:09;;;;;;;3.03;1.85;;;5.80;99.90;;;;;;4980553;28;20051;-75
2023/12/16 04:09:35;;;;;;;6.97;2.40;;;5.80;99.90;;;;;;4983800;28;20050;-75
2023/12/16 04:12:00;;;;;;;9.68;1.90;;;5.80;99.90;;;;;;4979513;28;20646;-75
2023/12/16 04:14:26;;;;;;;1.63;1.25;;;5.80;99.90;;;;;;4977294;28;20066;-74
2023/12/16 04:16:52;;;;;;;9.25;3.13;;;5.80;99.90;;;;;;4983449;28;20047;-75
2023/12/16 04:19:18;;;;;;;9.02;3.17;;;5.90;99.90;;;;;;4983530;28;20101;-74
2023/12/16 04:21:43;;;;;;;4.93;1.98;;;5.90;99.90;;;;;;4986853;28;20046;-75
2023/12/16 04:24:09;;;;;;;4.93;1.25;;;5.90;99.90;;;;;;4983546;28;20496;-75
2023/12/16 04:26:35;;;;;;;17.88;1.75;;;5.90;99.90;;;;;;4981099;28;20083;-74
2023/12/16 04:29:00;;;;;;;10.40;2.42;;;6.00;99.90;;;;;;4985172;28;20076;-75
2023/12/16 04:31:26;;;;;;;4.00;1.55;;;6.00;99.90;;;;;;4986124;28;20046;-75
2023/12/16 04:33:53;;;;;;;3.10;2.08;;;6.00;99.90;;;;;;4983627;28;20543;-75
2023/12/16 04:36:19;;;;;;;5.30;1.73;;;6.00;99.90;;;;;;4983563;28;20492;-75
2023/12/16 04:38:45;;;;;;;6.85;2.08;;;6.00;99.90;;;;;;4984613;28;20088;-75
2023/12/16 04:41:12;;;;;;;5.35;2.50;;;6.00;99.90;;;;;;4988126;28;20042;-75
2023/12/16 04:43:38;;;;;;;11.52;2.80;;;6.00;99.90;;;;;;5002875;28;20090;-74
2023/12/16 04:46:03;;;;;;;2.10;1.63;;;6.00;99.90;;;;;;5001799;28;20714;-75
2023/12/16 04:48:29;;;;;;;8.23;2.30;;;6.00;99.90;;;;;;5000687;28;20084;-75
2023/12/16 04:50:54;;;;;;;14.15;2.65;;;6.00;99.90;;;;;;5002400;28;20037;-75
2023/12/16 04:53:20;;;;;;;8.50;2.38;;;6.00;99.90;;;;;;4983226;28;20451;-75
2023/12/16 04:55:46;;;;;;;3.72;1.45;;;6.10;99.90;;;;;;4984346;28;20540;-74
2023/12/16 04:58:11;;;;;;;2.75;1.83;;;6.10;99.90;;;;;;4984482;28;20037;-75
2023/12/16 05:00:37;;;;;;;5.18;2.17;;;6.10;99.90;;;;;;4998175;28;20099;-75
2023/12/16 05:03:03;;;;;;;3.28;1.85;;;6.10;99.90;;;;;;4989448;28;20050;-75
2023/12/16 05:05:29;;;;;;;9.38;2.03;;;6.10;99.90;;;;;;4984317;28;20034;-75
2023/12/16 05:07:55;;;;;;;4.55;1.75;;;6.10;99.90;;;;;;4982167;28;20054;-75
2023/12/16 05:10:20;;;;;;;5.90;2.53;;;6.20;99.90;;;;;;4983014;28;20431;-75
2023/12/16 05:12:46;;;;;;;5.80;1.30;;;6.20;99.90;;;;;;4983592;28;20046;-75
2023/12/16 05:15:12;;;;;;;5.63;2.00;;;6.10;99.90;;;;;;4982619;28;20042;-75
2023/12/16 05:17:38;;;;;;;9.35;4.15;;;6.20;99.90;;;;;;4986892;28;20559;-75
2023/12/16 05:20:04;;;;;;;6.75;2.45;;;6.20;99.90;;;;;;4985535;28;20141;-75
2023/12/16 05:22:33;;;;;;;6.13;1.85;;;6.20;99.90;;;;;;4981507;28;20109;-75
2023/12/16 05:25:03;;;;;;;9.98;3.15;;;6.20;99.90;;;;;;4982041;28;20054;-74
2023/12/16 05:27:30;;;;;;;5.88;2.05;;;6.30;99.90;;;;;;4983556;28;20046;-74
2023/12/16 05:30:00;;;;;;;9.45;1.75;;;6.30;99.90;;;;;;4988473;28;20045;-74
2023/12/16 05:32:26;;;;;;;5.28;2.58;;;6.30;99.90;;;;;;5000616;28;20046;-74
2023/12/16 05:34:52;;;;;;;5.80;1.90;;;6.30;99.90;;;;;;5002787;28;20112;-75
2023/12/16 05:37:17;;;;;;;7.18;2.90;;;6.30;99.90;;;;;;5003449;28;20041;-74
2023/12/16 05:39:43;;;;;;;7.40;2.38;;;6.30;99.90;;;;;;4998717;28;20049;-75
2023/12/16 05:42:09;;;;;;;3.08;2.45;;;6.30;99.90;;;;;;4983050;28;20680;-74
2023/12/16 05:44:35;;;;;;;5.05;2.05;;;6.30;99.90;;;;;;5001067;28;20518;-74
2023/12/16 05:47:01;;;;;;;6.93;3.63;;;6.40;99.90;;;;;;4999800;28;20049;-75
2023/12/16 05:49:26;;;;;;;5.15;2.33;;;6.40;99.90;;;;;;4988723;28;20077;-75
2023/12/16 05:51:52;;;;;;;5.88;2.47;;;6.40;99.90;;;;;;4998388;28;20046;-75
2023/12/16 05:54:17;;;;;;;7.60;3.10;;;6.40;99.90;;;;;;4992171;28;20049;-74
2023/12/16 05:56:43;;;;;;;3.42;2.42;;;6.40;99.90;;;;;;4990318;28;20046;-75
2023/12/16 05:59:08;;;;;;;8.07;3.90;;;6.40;99.90;;;;;;5002277;28;20044;-74
2023/12/16 06:01:34;;;;;;;19.27;4.05;;;6.40;99.90;;;;;;4990820;28;20078;-75
2023/12/16 06:04:00;;;;;;;6.65;2.47;;;6.40;99.90;;;;;;4984148;28;20081;-75
2023/12/16 06:06:25;;;;;;;6.63;1.73;;;6.40;99.90;;;;;;4983881;28;20050;-75
2023/12/16 06:08:53;;;;;;;4.53;2.55;;;6.40;99.90;;;;;;4982607;28;20519;-75
2023/12/16 06:11:21;;;;;;;7.47;3.53;;;6.50;99.90;;;;;;4984588;28;20747;-74
2023/12/16 06:13:47;;;;;;;14.73;3.35;;;6.50;99.90;;;;;;4995494;28;20057;-74
2023/12/16 06:16:17;;;;;;;11.55;3.25;;;6.50;99.90;;;;;;4984851;28;20043;-74
2023/12/16 06:18:44;;;;;;;8.27;4.05;;;6.50;99.90;;;;;;4991000;28;20484;-74
2023/12/16 06:21:09;;;;;;;11.90;3.95;;;6.60;99.90;;;;;;5001606;28;20123;-74
2023/12/16 06:23:35;;;;;;;11.85;3.08;;;6.60;99.90;;;;;;5000776;28;20034;-74
2023/12/16 06:26:01;;;;;;;4.80;2.58;;;6.60;99.90;;;;;;4984890;28;20054;-74
2023/12/16 06:28:27;;;;;;;12.20;3.38;;;6.60;99.90;;;;;;4993246;28;20061;-74
2023/12/16 06:30:52;;;;;;;6.07;2.42;;;6.60;99.90;;;;;;4999873;28;20113;-75
2023/12/16 06:33:18;;;;;;;6.80;2.67;;;6.60;99.90;;;;;;5002428;28;20050;-74
2023/12/16 06:35:44;;;;;;;8.93;3.83;;;6.60;99.90;;;;;;5000455;28;20117;-74
2023/12/16 06:38:10;;;;;;;9.68;3.38;;;6.60;99.90;;;;;;4988846;28;20113;-74
2023/12/16 06:40:35;;;;;;;9.90;3.47;;;6.60;99.90;;;;;;4994328;28;20092;-75
2023/12/16 06:43:01;;;;;;;9.43;3.78;;;6.70;99.90;;;;;;5000265;28;20636;-74
2023/12/16 06:45:27;;;;;;;11.30;3.70;;;6.70;99.90;;;;;;5001548;28;20100;-75
2023/12/16 06:47:53;;;;;;;19.50;3.40;;;6.70;99.90;;;;;;4992405;28;20045;-75
2023/12/16 06:50:18;;;;;;;12.43;4.28;;;6.70;99.90;;;;;;4973593;28;20046;-75
2023/12/16 06:52:44;;;;;;;9.00;2.75;;;6.70;99.90;;;;;;4984008;28;20044;-74
2023/12/16 06:55:10;;;;;;;18.15;3.05;;;6.80;99.90;;;;;;4993716;28;20046;-74
2023/12/16 06:57:35;;;;;;;9.02;3.60;;;6.80;99.90;;;;;;4999334;28;20100;-75
2023/12/16 07:00:01;;;;;;;14.38;4.43;;;6.80;99.90;;;;;;4997775;28;20069;-74
2023/12/16 07:02:26;;;;;;;8.10;3.28;;;6.80;99.90;;;;;;4987805;28;20556;-74
2023/12/16 07:04:52;;;;;;;9.07;3.72;;;6.80;99.90;;;;;;4988873;28;20034;-75
2023/12/16 07:07:17;;;;;;;10.13;2.53;;;6.80;99.90;;;;;;4981654;28;20206;-75
2023/12/16 07:09:43;;;;;;;8.68;3.53;;;6.80;99.90;;;;;;4982087;28;20038;-74
2023/12/16 07:12:09;;;;;;;9.23;3.38;;;6.80;99.90;;;;;;4981693;28;20054;-75
2023/12/16 07:14:34;;;;;;;16.30;3.08;;;6.90;99.90;;;;;;4980968;28;20679;-75
2023/12/16 07:17:00;;;;;;;5.47;2.53;;;6.90;99.90;;;;;;4981559;28;20045;-75
2023/12/16 07:19:30;;;;;;;7.97;3.05;;;6.90;99.90;;;;;;4986491;28;20129;-75
2023/12/16 07:21:56;;;;;;;10.68;2.67;;;6.90;99.90;;;;;;4987895;28;20045;-75
2023/12/16 07:24:21;;;;;;;17.08;2.95;;;6.90;99.90;;;;;;4984492;28;20038;-75
2023/12/16 07:26:47;;;;;;;14.20;3.80;;;6.90;99.90;;;;;;5000083;28;20512;-74
2023/12/16 07:29:12;;;;;;;11.70;3.65;;;7.00;99.90;;;;;;4982034;28;20030;-75
2023/12/16 07:31:38;;;;;;;8.90;3.83;;;7.00;99.90;;;;;;5001547;28;20050;-75
2023/12/16 07:34:04;;;;;;;11.73;4.40;;;7.00;99.90;;;;;;4999003;28;20038;-74
2023/12/16 07:36:29;;;;;;;9.63;3.30;;;7.00;99.90;;;;;;4981481;28;20042;-75
2023/12/16 07:38:57;;;;;;;7.47;2.10;;;7.00;99.90;;;;;;4982886;28;20050;-75
2023/12/16 07:41:23;;;;;;;7.03;2.85;;;7.00;99.90;;;;;;4997778;28;20046;-75
2023/12/16 07:43:49;;;;;;;16.02;3.25;;;7.10;99.90;;;;;;4986982;28;20466;-79
2023/12/16 07:46:15;;;;;;;9.70;2.72;;;7.10;99.90;;;;;;4977349;28;20069;-75
2023/12/16 07:48:42;;;;;;;14.05;3.03;;;7.10;99.90;;;;;;4987279;28;20079;-74
2023/12/16 07:51:15;;;;;;;8.95;3.65;;;7.10;99.90;;;;;;4996416;28;20045;-74
2023/12/16 07:53:42;;;;;;;5.95;3.10;;;7.10;99.90;;;;;;4988136;28;20046;-74
2023/12/16 07:56:21;;;;;;;12.00;3.70;;;7.10;99.90;;;;;;4966811;28;20128;-74
2023/12/16 07:58:46;;;;;;;29.13;4.30;;;7.10;99.90;;;;;;4979627;28;20089;-74
2023/12/16 08:01:15;;;;;;;8.48;3.50;;;7.10;99.90;;;;;;4989699;28;20077;-74
2023/12/16 08:03:42;;;;;;;4.35;2.35;;;7.10;99.90;;;;;;4988205;28;20039;-74
2023/12/16 08:06:09;;;;;;;10.13;3.63;;;7.10;99.90;;;;;;4997630;28;20104;-74
2023/12/16 08:08:36;;;;;;;20.42;4.72;;;7.20;99.90;;;;;;4972861;28;20057;-74
2023/12/16 08:11:01;;;;;;;11.07;3.20;;;7.20;99.90;;;;;;4999232;28;20493;-74
2023/12/16 08:13:27;;;;;;;5.40;2.53;;;7.20;99.90;;;;;;4985806;28;20056;-74
2023/12/16 08:15:52;;;;;;;9.55;3.15;;;7.20;99.90;;;;;;4980553;28;20493;-74
2023/12/16 08:18:18;;;;;;;5.30;3.67;;;7.20;99.90;;;;;;4980861;28;20058;-74
2023/12/16 08:20:44;;;;;;;19.05;4.05;;;7.20;99.90;;;;;;4992357;28;20034;-74
2023/12/16 08:23:09;;;;;;;14.73;3.55;;;7.20;99.90;;;;;;4989833;28;20038;-74
2023/12/16 08:25:35;;;;;;;10.32;3.17;;;7.20;99.90;;;;;;4969019;28;20034;-74
2023/12/16 08:28:01;;;;;;;9.63;2.92;;;7.30;99.90;;;;;;4992277;28;20042;-75
2023/12/16 08:30:27;;;;;;;11.82;3.75;;;7.30;99.90;;;;;;4975017;28;20050;-74
2023/12/16 08:32:53;;;;;;;12.52;2.28;;;7.30;99.90;;;;;;4976503;28;20039;-74
2023/12/16 08:35:19;;;;;;;7.85;2.85;;;7.30;99.90;;;;;;4986202;28;20091;-74
2023/12/16 08:37:44;;;;;;;10.00;3.13;;;7.30;99.90;;;;;;5004209;28;20049;-74
2023/12/16 08:40:10;;;;;;;19.58;3.65;;;7.30;99.90;;;;;;4984202;28;20236;-74
2023/12/16 08:42:36;;;;;;;9.45;3.42;;;7.30;99.90;;;;;;4994839;28;20104;-74
2023/12/16 08:45:02;;;;;;;7.82;3.50;;;7.30;99.90;;;;;;4984977;28;20133;-74
2023/12/16 08:47:28;;;;;;;9.80;4.20;;;7.40;99.90;;;;;;4977825;28;20049;-75
2023/12/16 08:49:54;;;;;;;17.63;4.90;;;7.40;99.90;;;;;;4985127;28;20050;-75
2023/12/16 08:52:20;;;;;;;6.97;3.22;;;7.40;99.90;;;;;;4987832;28;20045;-75
2023/12/16 08:54:45;;;;;;;12.57;3.08;;;7.40;99.90;;;;;;4989397;28;20432;-75
2023/12/16 08:57:11;;;;;;;6.50;2.50;;;7.40;99.90;;;;;;5002394;28;20094;-74
2023/12/16 08:59:36;;;;;;;7.95;2.95;;;7.50;99.90;;;;;;4991752;28;20136;-75
2023/12/16 09:02:03;;;;;;;12.98;3.20;;;7.40;99.90;;;;;;4984182;28;20727;-75
2023/12/16 09:04:29;;;;;;;23.42;3.28;;;7.50;99.90;;;;;;4982745;28;20042;-75
2023/12/16 09:06:55;;;;;;;6.80;2.75;;;7.50;99.90;;;;;;4966280;28;20129;-75
2023/12/16 09:09:21;;;;;;;13.55;3.55;;;7.50;99.90;;;;;;4983725;28;20477;-75
2023/12/16 09:11:46;;;;;;;12.90;3.38;;;7.60;99.90;;;;;;4973113;28;20600;-74
2023/12/16 09:14:12;;;;;;;18.02;4.15;;;7.60;99.90;;;;;;4972214;28;20073;-74
2023/12/16 09:16:38;;;;;;;13.77;4.28;;;7.60;99.90;;;;;;5000074;28;20132;-75
2023/12/16 09:19:03;;;;;;;16.13;4.13;;;7.70;99.90;;;;;;5000825;28;20473;-75
2023/12/16 09:21:29;;;;;;;7.38;3.60;;;7.70;99.90;;;;;;4957794;28;20089;-74
2023/12/16 09:23:55;;;;;;;8.82;3.22;;;7.70;99.90;;;;;;4979259;28;20046;-75
2023/12/16 09:26:23;;;;;;;7.32;2.85;;;7.70;99.90;;;;;;4983098;28;20057;-74
2023/12/16 09:28:50;;;;;;;12.88;3.17;;;7.70;99.90;;;;;;4962785;28;20049;-75
2023/12/16 09:31:16;;;;;;;8.02;3.67;;;7.80;99.90;;;;;;4973515;28;20054;-75
2023/12/16 09:33:42;;;;;;;7.35;3.97;;;7.80;99.90;;;;;;4979899;28;20034;-75
2023/12/16 09:36:12;;;;;;;6.45;3.10;;;7.80;99.90;;;;;;4980264;28;20049;-75
2023/12/16 09:38:38;;;;;;;14.15;3.17;;;7.80;99.90;;;;;;4980249;28;20046;-75
2023/12/16 09:41:03;;;;;;;10.05;2.83;;;7.90;99.90;;;;;;4986909;28;20432;-75
2023/12/16 09:43:33;;;;;;;9.10;3.65;;;7.90;99.90;;;;;;4988215;28;20070;-75
2023/12/16 09:45:59;;;;;;;16.80;5.07;;;7.90;99.90;;;;;;4997758;28;20049;-74
2023/12/16 09:48:24;;;;;;;9.25;3.50;;;8.00;99.90;;;;;;5001573;28;20026;-74
2023/12/16 09:50:50;;;;;;;20.90;4.32;;;8.00;99.90;;;;;;4990621;28;20121;-75
2023/12/16 09:53:16;;;;;;;10.20;4.03;;;8.00;99.90;;;;;;4989270;28;20379;-73
2023/12/16 09:55:42;;;;;;;15.43;4.28;;;8.00;99.90;;;;;;4985848;28;20042;-74
2023/12/16 09:58:12;;;;;;;17.30;4.82;;;8.10;99.90;;;;;;4985133;28;20065;-73
2023/12/16 10:00:45;;;;;;;13.25;3.83;;;8.10;99.90;;;;;;4991443;28;20461;-75
2023/12/16 10:03:13;;;;;;;9.70;3.45;;;8.10;99.90;;;;;;4985489;28;20044;-74
2023/12/16 10:05:39;;;;;;;8.63;3.70;;;8.10;99.90;;;;;;4989405;28;20472;-75
2023/12/16 10:08:05;;;;;;;7.43;4.53;;;8.10;99.90;;;;;;4987370;28;20062;-75
2023/12/16 10:10:31;;;;;;;11.75;4.93;;;8.10;99.90;;;;;;4980379;28;20247;-75
2023/12/16 10:13:01;;;;;;;17.58;4.80;;;8.10;99.90;;;;;;4988760;28;20413;-77
2023/12/16 10:15:32;;;;;;;11.35;3.40;;;8.10;99.90;;;;;;4982207;28;20054;-76
2023/12/16 10:18:00;;;;;;;9.82;3.55;;;8.10;99.90;;;;;;4991131;28;20042;-76
2023/12/16 10:20:26;;;;;;;15.38;3.38;;;8.10;99.90;;;;;;4988982;28;20065;-76
2023/12/16 10:22:52;;;;;;;8.02;3.78;;;8.10;99.90;;;;;;4978771;28;20125;-76
2023/12/16 10:25:18;;;;;;;9.93;3.80;;;8.10;99.90;;;;;;4980190;28;20049;-76
2023/12/16 10:27:44;;;;;;;6.90;3.60;;;8.10;99.90;;;;;;4979573;28;20058;-76
2023/12/16 10:30:11;;;;;;;6.35;2.90;;;8.10;99.90;;;;;;4979129;28;20487;-76
2023/12/16 10:32:40;;;;;;;11.10;3.28;;;8.10;99.90;;;;;;4978983;28;20417;-76
2023/12/16 10:35:07;;;;;;;11.65;4.53;;;8.20;99.90;;;;;;4979295;28;20050;-76
2023/12/16 10:37:33;;;;;;;8.82;3.95;;;8.20;99.90;;;;;;4979000;28;20049;-75
2023/12/16 10:39:58;;;;;;;8.25;3.80;;;8.20;99.90;;;;;;4997670;28;20046;-76
2023/12/16 10:42:24;;;;;;;10.40;4.43;;;8.20;99.90;;;;;;4987890;28;20139;-76
2023/12/16 10:44:54;;;;;;;13.27;3.60;;;8.20;99.90;;;;;;4991614;28;20550;-76
2023/12/16 10:47:26;;;;;;;9.93;4.35;;;8.20;99.90;;;;;;4995620;28;20104;-76
2023/12/16 10:49:56;;;;;;;12.15;4.45;;;8.20;99.90;;;;;;4988275;28;20393;-76
2023/12/16 10:52:23;;;;;;;15.13;4.63;;;8.20;99.90;;;;;;4982291;28;20038;-76
2023/12/16 10:54:57;;;;;;;11.98;5.25;;;8.20;99.90;;;;;;4983900;28;20476;-75
2023/12/16 10:57:27;;;;;;;10.88;4.40;;;8.20;99.90;;;;;;4980419;28;20042;-74
2023/12/16 11:00:04;;;;;;;13.90;3.88;;;8.20;99.90;;;;;;4985407;28;20191;-76
2023/12/16 11:02:31;;;;;;;14.43;4.15;;;8.20;99.90;;;;;;4982131;28;20048;-76
2023/12/16 11:05:12;;;;;;;12.30;4.28;;;8.30;99.90;;;;;;4980753;28;20100;-76
2023/12/16 11:07:39;;;;;;;7.93;3.67;;;8.30;99.90;;;;;;4976509;28;20666;-82
2023/12/16 11:10:05;;;;;;;10.80;4.72;;;8.30;99.90;;;;;;4979647;28;20050;-76
2023/12/16 11:12:36;;;;;;;9.65;3.95;;;8.30;99.90;;;;;;4989129;28;20451;-76
2023/12/16 11:15:05;;;;;;;12.20;4.63;;;8.30;99.90;;;;;;4985876;28;20046;-76
2023/12/16 11:17:42;;;;;;;31.17;5.47;;;8.30;99.90;;;;;;4982995;28;20516;-76
2023/12/16 11:20:16;;;;;;;10.73;3.95;;;8.30;99.90;;;;;;4984600;28;20125;-76
2023/12/16 11:22:52;;;;;;;8.50;3.60;;;8.30;99.90;;;;;;4993531;28;20057;-76
2023/12/16 11:25:21;;;;;;;9.00;3.00;;;8.40;99.90;;;;;;4976253;28;20042;-76
2023/12/16 11:27:51;;;;;;;7.05;3.17;;;8.40;99.90;;;;;;4969287;28;20050;-76
2023/12/16 11:30:21;;;;;;;14.48;3.97;;;8.40;99.90;;;;;;4967473;28;20052;-75
2023/12/16 11:32:57;;;;;;;12.82;2.95;;;8.40;99.90;;;;;;4967773;28;20049;-76
2023/12/16 11:35:44;;;;;;;9.38;2.80;;;8.40;99.90;;;;;;4974433;28;20060;-77
2023/12/16 11:38:43;;;;;;;8.13;3.30;;;8.40;99.90;;;;;;4969612;28;20061;-76
2023/12/16 11:41:10;;;;;;;7.75;2.60;;;8.50;99.90;;;;;;4972301;28;20039;-77
2023/12/16 11:43:50;;;;;;;7.13;3.00;;;8.50;99.90;;;;;;4975813;28;20129;-77
2023/12/16 11:46:42;;;;;;;10.05;2.65;;;8.50;99.90;;;;;;4978993;28;20074;-77
2023/12/16 11:49:15;;;;;;;9.13;2.95;;;8.60;99.90;;;;;;4969061;28;20058;-77
2023/12/16 11:51:41;;;;;;;8.43;2.88;;;8.60;99.90;;;;;;4977970;28;20051;-77
2023/12/16 11:54:09;;;;;;;4.20;2.20;;;8.60;99.90;;;;;;4979517;28;20043;-77
2023/12/16 11:56:35;;;;;;;12.18;3.25;;;8.60;99.90;;;;;;4982286;28;20077;-77
2023/12/16 11:59:04;;;;;;;7.20;3.53;;;8.60;99.90;;;;;;4991351;28;20046;-77
2023/12/16 12:01:31;;;;;;;3.58;2.50;;;8.60;99.90;;;;;;4996150;28;20050;-77
2023/12/16 12:03:58;;;;;;;10.60;3.30;;;8.70;99.90;;;;;;4979747;28;20042;-77
2023/12/16 12:06:25;;;;;;;11.52;4.13;;;8.70;99.90;;;;;;4981073;28;20125;-77
2023/12/16 12:08:50;;;;;;;7.45;2.80;;;8.70;99.90;;;;;;4991275;28;20448;-77
2023/12/16 12:11:17;;;;;;;10.02;3.03;;;8.60;99.90;;;;;;5003532;28;20054;-77
2023/12/16 12:13:44;;;;;;;5.93;2.95;;;8.70;99.90;;;;;;4993454;28;20042;-77
2023/12/16 12:16:12;;;;;;;10.50;2.75;;;8.70;99.90;;;;;;4983076;28;20054;-77
2023/12/16 12:18:41;;;;;;;7.32;2.47;;;8.70;99.90;;;;;;4986040;28;20068;-76
2023/12/16 12:21:08;;;;;;;9.23;3.47;;;8.70;99.90;;;;;;4992371;28;20128;-77
2023/12/16 12:23:34;;;;;;;6.45;3.30;;;8.70;99.90;;;;;;4982044;28;20076;-77
2023/12/16 12:26:02;;;;;;;6.35;3.40;;;8.80;99.90;;;;;;4994392;28;20057;-77
2023/12/16 12:28:28;;;;;;;4.50;1.98;;;8.80;99.90;;;;;;5000017;28;20038;-77
2023/12/16 12:31:09;;;;;;;8.45;2.63;;;8.80;99.90;;;;;;5001434;28;20362;-77
2023/12/16 12:33:35;;;;;;;7.10;2.97;;;8.80;99.90;;;;;;5001290;28;20089;-76
2023/12/16 12:36:02;;;;;;;9.02;3.10;;;8.80;99.90;;;;;;5000833;28;20073;-77
2023/12/16 12:38:29;;;;;;;6.40;3.05;;;8.80;99.90;;;;;;4985926;28;20488;-77
2023/12/16 12:41:00;;;;;;;11.55;3.10;;;8.90;99.90;;;;;;4981494;28;20045;-77
2023/12/16 12:43:34;;;;;;;6.45;2.88;;;8.90;99.90;;;;;;4980804;28;20145;-77
2023/12/16 12:46:08;;;;;;;11.65;3.63;;;8.90;99.90;;;;;;4981046;28;20400;-77
2023/12/16 12:48:34;;;;;;;3.95;2.33;;;8.90;99.90;;;;;;4981443;28;20046;-77
2023/12/16 12:51:08;;;;;;;9.52;3.25;;;8.90;99.90;;;;;;4982091;28;20042;-77
2023/12/16 12:53:35;;;;;;;5.60;2.60;;;8.90;99.90;;;;;;4981311;28;20515;-77